• Join FlightAware (Why Join?)
  • Login
  • US Flag 
10:13PM EDT


 

Airport Tracker/Info


-or-


 

Live Flight TrackerFlight Track Log ✈ SKW5606 ✈ 16-Apr-2013 ✈ KORD - KHPN

Flight Track Log - Related Links

Times and Time Zones

All times are in EDT time to prevent confusion due to time zone crossing. See the SKW5606 flight status page for this flight to view local times or setup timezone preferences in your user account.

Time Position Orientation Groundspeed Altitude Reporting Facility
EDT Latitude Longitude Course Direction KTS MPH feet Rate Location/Type
08:42AM 42.0167 -87.9333 90° East 162 186 2,500  Level Chicago TRACON
08:43AM 42.0667 -87.8833 37° Northeast 262 302 4,400 2,400 Climbing Chicago TRACON
08:45AM 42.0724 -87.2216 78° East  Level FlightAware Approximate
08:45AM 42.1067 -87.6411 77° East 325 374 10,900  Level Chicago Center
08:46AM 42.0998 -87.0509 77° East  Level FlightAware Approximate
08:46AM 42.1086 -87.5094 89° East 348 400 13,300  Level Chicago Center
08:47AM 42.1167 -86.9047 90° East  Level FlightAware Approximate
08:47AM 42.1094 -87.3647 90° East 381 438 15,200  Level Chicago Center
08:48AM 42.1103 -87.1861 90° East 396 456 18,000 2,220 Climbing Chicago Center
08:49AM 42.1139 -87.0372 88° East 399 459 19,800 1,680 Climbing Chicago Center
08:50AM 42.1208 -86.8819 86° East 412 474 21,500 1,560 Climbing Chicago Center
08:51AM 42.1264 -86.7222 87° East 422 486 23,000 1,320 Climbing Chicago Center
08:52AM 42.1306 -86.5556 88° East 441 507 24,300 1,200 Climbing Chicago Center
08:54AM 42.1260 -86.3876 90° East  Level Estimated
08:54AM 42.1408 -86.2178 90° East 453 521 26,800  Level Chicago Center
08:55AM 42.1439 -86.0103 89° East 461 531 28,100 1,020 Climbing Chicago Center
08:56AM 42.1425 -85.8522 91° East 461 531 28,900 780 Climbing Chicago Center
08:58AM 42.1406 -85.6767 91° East 469 540 29,800 780 Climbing Chicago Center
08:59AM 42.1389 -85.4642 91° East 475 547 30,600 540 Climbing Chicago Center
09:00AM 42.1389 -85.2825 90° East 486 559 31,000 420 Climbing Cleveland Center
09:01AM 42.1381 -85.0978 90° East 486 559 31,500 600 Climbing Cleveland Center
09:02AM 42.1347 -84.9097 91° East 491 565 32,300 720 Climbing Cleveland Center
09:03AM 42.1500 -84.7231 84° East 496 571 33,000 300 Climbing Cleveland Center
09:04AM 42.1578 -84.5611 86° East 489 563 33,000  Level Cleveland Center
09:05AM 42.1706 -84.3683 85° East 500 575 33,000  Level Cleveland Center
09:06AM 42.1853 -84.1758 84° East 505 581 33,000  Level Cleveland Center
09:07AM 42.1994 -83.9833 84° East 510 587 33,000  Level Cleveland Center
09:08AM 42.2133 -83.7906 84° East 520 598 33,000  Level Cleveland Center
09:09AM 42.2267 -83.5978 85° East 515 593 33,000 960 Level Cleveland Center
09:10AM 42.2406 -83.3850 85° East 515 593 35,000  Climbing Cleveland Center
09:11AM 42.2533 -83.1892 85° East 515 593 33,000 -660 Descending Cleveland Center
09:12AM 42.2658 -83.0017 85° East 515 593 33,700 840 Climbing Cleveland Center
09:13AM 42.2781 -82.8169 85° East 509 586 34,700 600 Climbing Cleveland Center
09:14AM 42.2897 -82.6322 85° East 496 571 35,000 120 Climbing Cleveland Center
09:15AM 42.2992 -82.4444 86° East 496 571 35,000  Level Cleveland Center
09:16AM 42.3125 -82.2567 84° East 496 571 35,000  Level Cleveland Center
09:17AM 42.3211 -82.0828 86° East 501 577 35,000  Level Cleveland Center
09:18AM 42.3317 -81.8975 86° East 501 577 35,000  Level Cleveland Center
09:19AM 42.3444 -81.6844 85° East 501 577 35,000  Level Cleveland Center
09:20AM 42.3544 -81.4936 86° East 506 582 35,000  Level Cleveland Center
09:21AM 42.3619 -81.3053 87° East 501 577 35,000  Level Cleveland Center
09:22AM 42.3714 -81.1114 86° East 507 583 35,000  Level Cleveland Center
09:23AM 42.3806 -80.9206 86° East 507 583 35,000  Level Cleveland Center
09:24AM 42.3892 -80.7267 86° East 507 583 35,000  Level Cleveland Center
09:25AM 42.3997 -80.5411 86° East 511 588 35,000  Level Cleveland Center
09:26AM 42.4036 -80.3639 88° East 511 588 35,000  Level Cleveland Center
09:27AM 42.4136 -80.1753 86° East 511 588 35,000  Level Cleveland Center
09:28AM 42.4189 -79.9672 88° East 511 588 35,000  Level Cleveland Center
09:29AM 42.4261 -79.7872 87° East 497 572 35,000  Level Cleveland Center
09:30AM 42.4331 -79.6069 87° East 485 558 35,000  Level Cleveland Center
09:31AM 42.4378 -79.4269 88° East 479 551 35,000  Level Cleveland Center
09:32AM 42.4442 -79.2467 87° East 479 551 35,000  Level Cleveland Center
09:33AM 42.4503 -79.0636 87° East 479 551 35,000  Level Cleveland Center
09:34AM 42.4564 -78.9031 87° East 479 551 35,000  Level Cleveland Center
09:35AM 42.4597 -78.7228 89° East 479 551 35,000  Level Cleveland Center
09:36AM 42.4631 -78.5428 89° East 479 551 35,000  Level Cleveland Center
09:37AM 42.4700 -78.3594 87° East 479 551 35,000  Level Cleveland Center
09:38AM 42.4728 -78.1764 89° East 479 551 35,000  Level Cleveland Center
09:39AM 42.4750 -77.9961 89° East 479 551 35,000  Level Cleveland Center
09:40AM 42.4769 -77.8131 89° East 479 551 35,000  Level Cleveland Center
09:41AM 42.4831 -77.6325 87° East 479 551 35,000 -1,020 Level Cleveland Center
09:42AM 42.4836 -77.4242 90° East 484 557 33,000 -1,020 Descending Cleveland Center
09:43AM 42.4892 -77.2492 87° East 484 557 33,000  Level Cleveland Center
09:45AM 42.4928 -76.8306 89° East 480 552 33,000  Level Boston Center
09:46AM 42.4933 -76.6503 90° East 480 552 33,000  Level Boston Center
09:47AM 42.4917 -76.4669 91° East 480 552 33,000 -480 Level Boston Center
09:48AM 42.4603 -76.2906 104° East 480 552 32,100 -1,440 Descending Boston Center
09:49AM 42.4297 -76.1367 105° East 475 547 30,200 -2,280 Descending Boston Center
09:50AM 42.3956 -75.9714 106° East 470 541 27,600 -2,820 Descending Boston Center
09:51AM 42.3608 -75.8064 106° East 457 526 24,600 -2,880 Descending Boston Center
09:52AM 42.3278 -75.6531 106° East 439 505 22,000 -1,320 Descending Boston Center
09:53AM 42.2911 -75.4742 105° East 439 505 22,000 -600 Level Boston Center
09:54AM 42.2556 -75.3125 106° East 444 511 20,800 -1,980 Descending Boston Center
09:55AM 42.2219 -75.1569 106° East 439 505 18,100 -1,440 Descending Boston Center
09:56AM 42.1936 -75.0267 106° East 418 481 18,000 -60 Descending Boston Center
09:57AM 42.1469 -74.8847 114° Southeast 412 474 18,000 -60 Level Boston Center
09:58AM 42.0806 -74.7619 126° Southeast 406 467 17,900 -1,020 Descending Boston Center
09:59AM 42.0097 -74.6558 132° Southeast 393 452 16,000 -2,160 Descending Boston Center
10:00AM 41.9347 -74.5556 135° Southeast 355 409 13,800 -2,040 Descending Boston Center
10:01AM 41.8778 -74.4783 135° Southeast 329 379 12,000 -1,440 Descending Boston Center
10:02AM 41.8083 -74.3842 135° Southeast 316 364 11,000 -540 Descending Boston Center
10:03AM 41.7556 -74.3131 135° Southeast 316 364 11,000  Level Boston Center
10:04AM 41.6861 -74.2192 135° Southeast 316 364 11,000 -540 Level Boston Center
10:05AM 41.6311 -74.1456 135° Southeast 321 369 10,000 -1,620 Descending Boston Center
10:06AM 41.5717 -74.0633 134° Southeast 309 356 7,900 -2,040 Descending Boston Center
10:07AM 41.5333 -74.0000 129° Southeast 280 322 6,400 -1,140 Descending New York TRACON
10:08AM 41.4667 -73.9333 143° Southeast 267 307 6,000 -780 Descending New York TRACON
10:09AM 41.4000 -73.9000 159° South 249 287 4,900 -1,440 Descending New York TRACON
10:10AM 41.3333 -73.8833 169° South 226 260 3,200 -960 Descending New York TRACON
10:11AM 41.2833 -73.8667 166° South 240 276 3,000 -120 Descending New York TRACON
10:12AM 41.2333 -73.8333 153° Southeast 205 236 3,000 -120 Level New York TRACON
10:13AM 41.1833 -73.8000 153° Southeast 176 203 2,800 -540 Descending New York TRACON
10:14AM 41.1500 -73.7667 143° Southeast 142 163 2,000 -720 Descending New York TRACON
10:15AM 41.1167 -73.7500 159° South 120 138 1,400 -660 Descending New York TRACON
10:16AM 41.0833 -73.7167 143° Southeast 125 144 700 -720 Descending New York TRACON